الصفحة الرئيسية
METAR-TAF:

METAR-TAF

مطار :

Kwajalein, جزر مارشال

دائرة عرض: 08-43N, خط طول: 167-44E, ارتفاع: 3 متر

مراقبة الطقس الحالي

تاريخ ووقت الإصدار 26 دقيقة قبل الساعة 15:20UTC
ريح 15 عقدة من الشمال الشرقي
درجة الحرارة 27°درجة مئوية
الرطوبة 79%
ضغط 1009 hPa
الرؤية: 16.1 كم
غيوم متفرقة على ارتفاع 2400 قدم
غيوم متفرقة على ارتفاع 4400 قدم
غيوم متفرقة على ارتفاع 5000 قدم

METAR: PKWA 061520Z AUTO 04015KT 10SM SCT024 SCT044 SCT050 27/23 A2980 RMK AO2 T02710229

زمن: 03:46 (15:46 UTC)

توقعات

تاريخ ووقت الإصدار 4ساعات و 26 دقيقة قبل الساعة 11:20UTC
التوقعات صالحة من06 الساعة 12 UTC إلى 07 الساعة 12 UTC
ريح 16 عقدة من الشمال الشرقي
الرؤية: 10 كم
غيوم متفرقة على ارتفاع 2400 قدم
غيوم متفرقة على ارتفاع 4000 قدم

TAF: PKWA 061120Z 0612/0712 05016KT P6SM SCT024 SCT040

أرصاد الطقس والتوقعات من أكثر من 4000 مطار (تقارير الطقس للمطار METAR والتنبؤ بالطقس بالمطارTAF).

المحطات المتاحة هي النقط الصفراء والحمراء على الخريطة.

حرك المؤشر فوق النقطة لمعرفة اسم المحطة.

ثم انقر لمعرفة أرصاد وتوقعات الطقس.

لتغيير الخارطة: اضغط على الأزرار الخضراء مع رمز الصليب الأسود للتكبير. على الزر الأخضر مع شرطة للتصغير، أو على الأسهم الخضراء للخرائط المجاورة.


METAR-TAF: